createdAt,value
2022-12-08T00:01:16.953Z,11
2022-12-08T00:07:13.831Z,11
2022-12-08T00:13:03.871Z,11
2022-12-08T00:19:18.204Z,10
2022-12-08T00:25:14.939Z,11
2022-12-08T00:31:29.093Z,12
2022-12-08T00:37:27.794Z,11
2022-12-08T00:43:04.497Z,11
2022-12-08T00:49:17.346Z,11
2022-12-08T00:55:16.087Z,10
2022-12-08T01:01:15.990Z,10
2022-12-08T01:06:59.652Z,10
2022-12-08T01:12:59.524Z,10
2022-12-08T01:19:21.277Z,11
2022-12-08T01:25:16.493Z,10
2022-12-08T01:31:22.353Z,10
2022-12-08T01:37:21.286Z,10
2022-12-08T01:43:27.096Z,10
2022-12-08T01:49:00.874Z,10
2022-12-08T01:54:56.941Z,10
2022-12-08T02:01:24.156Z,9
2022-12-08T02:07:16.125Z,9
2022-12-08T02:13:12.543Z,9
2022-12-08T02:19:29.037Z,8
2022-12-08T02:24:54.974Z,8
2022-12-08T02:30:56.229Z,9
2022-12-08T02:36:54.966Z,9
2022-12-08T02:42:56.052Z,9
2022-12-08T02:49:01.036Z,8
2022-12-08T02:55:02.565Z,7
2022-12-08T03:01:05.737Z,7
2022-12-08T03:06:55.580Z,8
2022-12-08T03:13:00.771Z,8
2022-12-08T03:19:14.266Z,8
2022-12-08T03:25:26.283Z,8
2022-12-08T03:31:08.901Z,8
2022-12-08T03:37:12.819Z,8
2022-12-08T03:43:48.542Z,8
2022-12-08T03:49:21.499Z,8
2022-12-08T03:55:03.486Z,8
2022-12-08T04:01:15.216Z,8
2022-12-08T04:07:04.306Z,8
2022-12-08T04:13:21.851Z,7
2022-12-08T04:19:20.416Z,7
2022-12-08T04:25:05.568Z,7
2022-12-08T04:31:17.073Z,7
2022-12-08T04:37:27.864Z,6
2022-12-08T04:43:14.761Z,6
2022-12-08T04:49:22.606Z,5
2022-12-08T04:55:22.734Z,6
2022-12-08T05:01:23.079Z,6
2022-12-08T05:07:08.029Z,6
2022-12-08T05:13:14.688Z,6
2022-12-08T05:19:11.975Z,6
2022-12-08T05:25:07.402Z,5
2022-12-08T05:31:09.976Z,6
2022-12-08T05:37:20.203Z,6
2022-12-08T05:43:19.799Z,5
2022-12-08T05:49:12.884Z,7
2022-12-08T05:55:07.297Z,7
2022-12-08T06:01:17.526Z,7
2022-12-08T06:07:19.881Z,7
2022-12-08T06:13:31.771Z,8
2022-12-08T06:19:26.609Z,10
2022-12-08T06:25:16.657Z,9
2022-12-08T06:31:17.940Z,10
2022-12-08T06:37:02.203Z,8
2022-12-08T06:43:02.400Z,9
2022-12-08T06:49:09.889Z,9
2022-12-08T06:55:16.840Z,9
2022-12-08T07:01:17.746Z,9
2022-12-08T07:07:01.195Z,9
2022-12-08T07:13:19.172Z,9
2022-12-08T07:19:21.770Z,10
2022-12-08T07:25:22.317Z,9
2022-12-08T07:31:02.995Z,8
2022-12-08T07:36:55.672Z,9
2022-12-08T07:42:56.676Z,9
2022-12-08T07:48:55.810Z,9
2022-12-08T07:54:55.514Z,9
2022-12-08T08:01:07.367Z,9
2022-12-08T08:06:55.668Z,9
2022-12-08T08:12:55.648Z,8
2022-12-08T08:18:55.840Z,8
2022-12-08T08:24:55.849Z,9
2022-12-08T08:31:00.421Z,9
2022-12-08T08:36:56.513Z,10
2022-12-08T08:42:56.216Z,10
2022-12-08T08:48:56.246Z,10
2022-12-08T08:54:55.376Z,11
2022-12-08T09:01:06.884Z,10
2022-12-08T09:06:56.121Z,9
2022-12-08T09:12:55.734Z,10
2022-12-08T09:18:56.118Z,10
2022-12-08T09:24:55.481Z,9
2022-12-08T09:31:09.247Z,9
2022-12-08T09:36:55.348Z,8
2022-12-08T09:42:55.379Z,8
2022-12-08T09:48:55.371Z,7
2022-12-08T09:54:55.758Z,6
2022-12-08T10:00:55.704Z,5
2022-12-08T10:06:55.362Z,5
2022-12-08T10:12:55.370Z,6
2022-12-08T10:18:56.006Z,7
2022-12-08T10:24:55.940Z,5
2022-12-08T10:30:58.815Z,6
2022-12-08T10:36:55.469Z,5
2022-12-08T10:42:55.455Z,6
2022-12-08T10:48:55.778Z,6
2022-12-08T10:54:55.214Z,6
2022-12-08T11:00:56.435Z,7
2022-12-08T11:06:55.844Z,7
2022-12-08T11:12:56.022Z,7
2022-12-08T11:18:55.690Z,8
2022-12-08T11:24:55.370Z,8
2022-12-08T11:30:58.879Z,8
2022-12-08T11:36:56.049Z,9
2022-12-08T11:42:56.395Z,8
2022-12-08T11:48:55.384Z,8
2022-12-08T11:54:55.141Z,8
2022-12-08T12:00:55.579Z,8
2022-12-08T12:06:55.961Z,8
2022-12-08T12:12:54.958Z,7
2022-12-08T12:18:55.000Z,7
2022-12-08T12:24:56.165Z,7
2022-12-08T12:30:55.729Z,9
2022-12-08T12:36:56.536Z,9
2022-12-08T12:42:55.925Z,8
2022-12-08T12:48:55.047Z,8
2022-12-08T12:54:55.089Z,8
2022-12-08T13:00:55.069Z,6
2022-12-08T13:06:55.126Z,5
2022-12-08T13:12:55.410Z,5
2022-12-08T13:18:55.374Z,4
2022-12-08T13:24:55.162Z,4
2022-12-08T13:30:55.270Z,4
2022-12-08T13:36:55.805Z,4
2022-12-08T13:42:55.359Z,4
2022-12-08T13:50:30.710Z,4
2022-12-08T13:56:05.326Z,4
2022-12-08T14:00:56.727Z,4
2022-12-08T14:06:55.358Z,4
2022-12-08T14:12:55.413Z,4
2022-12-08T14:18:55.623Z,4
2022-12-08T14:24:55.419Z,4
2022-12-08T14:31:02.417Z,4
2022-12-08T14:36:55.806Z,4
2022-12-08T14:42:55.562Z,5
2022-12-08T14:48:56.284Z,4
2022-12-08T14:54:55.229Z,4
2022-12-08T15:00:55.373Z,5
2022-12-08T15:06:55.810Z,4
2022-12-08T15:12:55.707Z,4
2022-12-08T15:18:55.367Z,5
2022-12-08T15:24:55.693Z,5
2022-12-08T15:31:07.486Z,5
2022-12-08T15:36:55.849Z,4
2022-12-08T15:42:56.156Z,6
2022-12-08T15:48:58.274Z,5
2022-12-08T15:54:56.121Z,6
2022-12-08T16:01:06.752Z,5
2022-12-08T16:07:23.476Z,5
2022-12-08T16:18:55.671Z,4
2022-12-08T16:25:01.265Z,5
2022-12-08T16:31:07.646Z,5
2022-12-08T16:36:55.765Z,4
2022-12-08T16:42:55.645Z,5
2022-12-08T16:48:55.487Z,5
2022-12-08T16:54:55.832Z,4
2022-12-08T17:01:04.248Z,4
2022-12-08T17:06:55.415Z,4
2022-12-08T17:12:55.916Z,4
2022-12-08T17:18:55.602Z,4
2022-12-08T17:24:55.940Z,4
2022-12-08T17:31:15.041Z,4
2022-12-08T17:37:18.075Z,5
2022-12-08T17:43:22.293Z,4
2022-12-08T17:49:23.858Z,5
2022-12-08T17:55:21.611Z,5
2022-12-08T18:01:15.682Z,5
2022-12-08T18:07:44.855Z,5
2022-12-08T18:13:18.624Z,5
2022-12-08T18:19:23.978Z,5
2022-12-08T18:25:13.287Z,5
2022-12-08T18:31:22.468Z,6
2022-12-08T18:37:42.248Z,6
2022-12-08T18:43:25.021Z,8
2022-12-08T18:49:35.168Z,8
2022-12-08T18:55:30.163Z,9
2022-12-08T19:01:27.488Z,9
2022-12-08T19:07:32.474Z,10
2022-12-08T19:13:17.947Z,12
2022-12-08T19:19:15.107Z,15
2022-12-08T19:25:28.268Z,15
2022-12-08T19:31:11.817Z,14
2022-12-08T19:37:17.061Z,12
2022-12-08T19:43:11.211Z,13
2022-12-08T19:49:33.685Z,16
2022-12-08T19:55:12.187Z,13
2022-12-08T20:01:28.824Z,14
2022-12-08T20:07:16.812Z,12
2022-12-08T20:13:17.303Z,11
2022-12-08T20:19:07.038Z,9
2022-12-08T20:25:24.192Z,9
2022-12-08T20:31:13.064Z,9
2022-12-08T20:37:12.341Z,8
2022-12-08T20:43:36.555Z,9
2022-12-08T20:49:31.154Z,12
2022-12-08T20:55:29.729Z,12
2022-12-08T21:01:34.491Z,11
2022-12-08T21:07:53.087Z,10
2022-12-08T21:13:29.837Z,10
2022-12-08T21:19:33.238Z,10
2022-12-08T21:25:23.725Z,10
2022-12-08T21:31:28.492Z,8
2022-12-08T21:37:26.135Z,8
2022-12-08T21:43:27.358Z,10
2022-12-08T21:49:18.348Z,11
2022-12-08T21:55:25.601Z,14
2022-12-08T22:01:12.520Z,15
2022-12-08T22:06:59.104Z,15
2022-12-08T22:13:27.726Z,13
2022-12-08T22:19:18.380Z,14
2022-12-08T22:25:11.945Z,14
2022-12-08T22:31:07.523Z,15
2022-12-08T22:37:43.465Z,12
2022-12-08T22:43:29.366Z,13
2022-12-08T22:49:23.683Z,13
2022-12-08T22:55:25.400Z,12
2022-12-08T23:01:24.212Z,10
2022-12-08T23:07:33.464Z,11
2022-12-08T23:13:20.165Z,11
2022-12-08T23:19:17.125Z,11
2022-12-08T23:25:39.014Z,11
2022-12-08T23:31:27.190Z,11
2022-12-08T23:37:27.495Z,11
2022-12-08T23:43:20.772Z,11
2022-12-08T23:49:17.276Z,11
2022-12-08T23:55:18.418Z,10
